Time;durP1;ratioP1;P1;durP2;ratioP2;P2;SDS_P1;SDS_P2;PMS_P1;PMS_P2;Temp;Humidity;BMP_temperature;BMP_pressure;BME280_temperature;BME280_humidity;BME280_pressure;Samples;Min_cycle;Max_cycle;Signal;HPM_P1;HPM_P2
2021/08/23 00:01:06;;;;;;;12.20;11.00;;;;;;;19.69;71.53;100421.98;116749;1188;23609;-76
2021/08/23 00:03:35;;;;;;;12.50;11.40;;;;;;;19.69;71.67;100416.98;116753;1188;23447;-75
2021/08/23 00:06:05;;;;;;;13.40;12.10;;;;;;;19.70;71.71;100418.20;116797;1188;21897;-76
2021/08/23 00:08:34;;;;;;;12.90;11.60;;;;;;;19.72;71.67;100421.29;116728;1188;23506;-76
2021/08/23 00:11:04;;;;;;;11.50;10.50;;;;;;;19.73;71.67;100427.27;116730;1190;23930;-76
2021/08/23 00:13:33;;;;;;;13.60;12.30;;;;;;;19.75;71.60;100421.16;116747;1189;23461;-76
2021/08/23 00:16:02;;;;;;;14.10;11.50;;;;;;;19.76;71.41;100418.34;116966;1187;23540;-76
2021/08/23 00:18:31;;;;;;;13.80;12.50;;;;;;;19.75;71.30;100420.41;116952;1187;22304;-76
2021/08/23 00:21:03;;;;;;;13.80;12.30;;;;;;;19.74;71.31;100428.05;116868;1190;23613;-77
2021/08/23 00:23:36;;;;;;;;;;;;;;;19.73;71.28;100430.31;116732;1189;22947;-76
2021/08/23 00:26:22;;;;;;;14.40;12.10;;;;;;;19.64;71.43;100425.94;116724;1189;21886;-76
2021/08/23 00:28:51;;;;;;;13.90;12.60;;;;;;;19.64;71.64;100424.55;116727;1190;23471;-76
2021/08/23 00:31:20;;;;;;;13.90;12.70;;;;;;;19.67;71.50;100426.14;116715;1188;23511;-76
2021/08/23 00:33:49;;;;;;;12.80;11.70;;;;;;;19.69;71.49;100424.03;116693;1190;21895;-76
2021/08/23 00:36:18;;;;;;;14.20;13.00;;;;;;;19.71;71.45;100421.05;116741;1189;23713;-76
2021/08/23 00:38:47;;;;;;;14.20;12.70;;;;;;;19.71;71.33;100420.05;116544;1188;22602;-76
2021/08/23 00:41:16;;;;;;;14.30;13.00;;;;;;;19.70;71.21;100421.14;116709;1190;21890;-76
2021/08/23 00:43:45;;;;;;;12.90;11.60;;;;;;;19.69;71.28;100428.32;117001;1186;21872;-75
2021/08/23 00:46:14;;;;;;;14.20;12.90;;;;;;;19.66;71.22;100439.20;117041;1185;21890;-76
2021/08/23 00:48:43;;;;;;;14.20;12.80;;;;;;;19.65;71.33;100442.02;116993;1185;23441;-76
2021/08/23 00:51:12;;;;;;;13.70;12.40;;;;;;;19.66;71.46;100437.73;117002;1186;22627;-76
2021/08/23 00:53:42;;;;;;;14.70;13.40;;;;;;;19.66;71.39;100424.73;117005;1185;21889;-76
2021/08/23 00:56:12;;;;;;;13.80;12.50;;;;;;;19.69;71.52;100413.48;117046;1185;23014;-76
2021/08/23 00:58:41;;;;;;;14.00;12.70;;;;;;;19.69;71.36;100409.86;116987;1185;21895;-75
2021/08/23 01:01:30;;;;;;;14.90;13.50;;;;;;;19.68;71.24;100413.08;117044;1185;23567;-75
2021/08/23 01:04:09;;;;;;;14.40;12.90;;;;;;;19.63;71.27;100419.70;117044;1185;21891;-75
2021/08/23 01:06:39;;;;;;;14.40;13.20;;;;;;;19.61;71.37;100423.59;116999;1185;21883;-75
2021/08/23 01:09:14;;;;;;;14.80;13.40;;;;;;;19.60;71.30;100427.45;116971;1182;23293;-75
2021/08/23 01:11:55;;;;;;;13.70;12.60;;;;;;;19.57;71.35;100432.89;116989;1186;23606;-75
2021/08/23 01:14:24;;;;;;;14.30;12.80;;;;;;;19.55;71.51;100432.96;116999;1185;21881;-76
2021/08/23 01:16:53;;;;;;;13.30;12.20;;;;;;;19.55;71.46;100426.04;116987;1187;21880;-75
2021/08/23 01:19:23;;;;;;;14.60;13.20;;;;;;;19.56;71.57;100419.80;116964;1185;22850;-75
2021/08/23 01:21:56;;;;;;;14.90;13.60;;;;;;;19.56;71.48;100421.56;117009;1187;21915;-75
2021/08/23 01:24:29;;;;;;;13.50;12.40;;;;;;;19.55;71.36;100423.93;117040;1185;21898;-76
2021/08/23 01:26:59;;;;;;;14.10;12.60;;;;;;;19.55;71.51;100435.52;116962;1185;22311;-75
2021/08/23 01:29:47;;;;;;;14.80;13.30;;;;;;;19.56;71.53;100439.05;117011;1183;21890;-75
2021/08/23 01:32:22;;;;;;;14.70;13.40;;;;;;;19.57;71.63;100435.04;117017;1185;22049;-76
2021/08/23 01:34:53;;;;;;;15.70;14.40;;;;;;;19.58;71.64;100425.55;117096;1185;21890;-75
2021/08/23 01:37:24;;;;;;;31.30;28.50;;;;;;;19.60;71.58;100412.33;117083;1185;24305;-76
2021/08/23 01:39:53;;;;;;;18.80;16.80;;;;;;;19.60;71.48;100403.30;116996;1185;22093;-77
2021/08/23 01:42:23;;;;;;;15.70;14.40;;;;;;;19.60;71.42;100398.19;117004;1186;21866;-76
2021/08/23 01:44:53;;;;;;;14.80;13.50;;;;;;;19.59;71.49;100400.05;117019;1185;21886;-77
2021/08/23 01:47:22;;;;;;;14.20;12.90;;;;;;;19.59;71.35;100404.39;117044;1185;21883;-76
2021/08/23 01:49:50;;;;;;;13.50;12.20;;;;;;;19.58;71.52;100400.83;116969;1187;22152;-76
2021/08/23 01:52:19;;;;;;;15.90;14.20;;;;;;;19.57;71.46;100395.92;117225;1184;21891;-77
2021/08/23 01:54:48;;;;;;;18.40;16.70;;;;;;;19.57;71.51;100391.50;117062;1185;21894;-76
2021/08/23 01:57:20;;;;;;;16.50;15.30;;;;;;;19.56;71.63;100383.40;117219;1184;23540;-77
2021/08/23 01:59:48;;;;;;;;;;;;;;;19.53;71.71;100382.86;117293;1185;21878;-77
2021/08/23 02:02:17;;;;;;;15.70;14.30;;;;;;;19.44;71.98;100383.76;117051;1185;21897;-77
2021/08/23 02:04:46;;;;;;;16.10;14.60;;;;;;;19.40;72.09;100382.32;117279;1187;23530;-77
2021/08/23 02:07:16;;;;;;;17.10;15.30;;;;;;;19.39;72.19;100380.85;116792;1189;22427;-77
2021/08/23 02:09:45;;;;;;;21.90;20.00;;;;;;;19.39;72.47;100380.48;116832;1188;21887;-77
2021/08/23 02:12:14;;;;;;;17.10;15.60;;;;;;;19.39;72.56;100383.36;116731;1190;22804;-76
2021/08/23 02:14:42;;;;;;;17.40;16.00;;;;;;;19.38;72.68;100384.25;116814;1188;21903;-77
2021/08/23 02:17:11;;;;;;;20.10;18.30;;;;;;;19.37;72.84;100384.95;116666;1190;21908;-76
2021/08/23 02:19:40;;;;;;;23.20;21.00;;;;;;;19.36;72.93;100384.52;116429;1192;23502;-76
2021/08/23 02:22:12;;;;;;;21.90;20.10;;;;;;;19.35;73.11;100380.16;116385;1195;22256;-76
2021/08/23 02:24:42;;;;;;;20.20;18.40;;;;;;;19.35;73.18;100376.88;116449;1187;23543;-76
2021/08/23 02:27:11;;;;;;;22.10;20.30;;;;;;;19.32;73.27;100382.75;116772;1188;22898;-76
2021/08/23 02:29:40;;;;;;;22.20;19.90;;;;;;;19.30;73.48;100390.60;116866;1188;21908;-76
2021/08/23 02:32:10;;;;;;;19.40;17.80;;;;;;;19.27;73.69;100395.79;116822;1190;21888;-76
2021/08/23 02:34:38;;;;;;;21.40;19.60;;;;;;;19.25;73.94;100393.05;116730;1188;21888;-76
2021/08/23 02:37:07;;;;;;;21.00;19.10;;;;;;;19.25;74.07;100395.64;116831;1188;22036;-76
2021/08/23 02:39:36;;;;;;;19.70;18.00;;;;;;;19.23;74.19;100391.20;117027;1188;22272;-76
2021/08/23 02:42:05;;;;;;;19.40;17.80;;;;;;;19.22;74.30;100385.95;117241;1185;21883;-76
2021/08/23 02:44:34;;;;;;;20.10;18.10;;;;;;;19.21;74.39;100386.18;117026;1185;23635;-76
2021/08/23 02:47:03;;;;;;;18.60;17.00;;;;;;;19.19;74.39;100393.58;117320;1185;21887;-75
2021/08/23 02:49:32;;;;;;;17.40;15.90;;;;;;;19.17;74.56;100395.98;117033;1182;23505;-76
2021/08/23 02:52:01;;;;;;;20.90;18.80;;;;;;;19.15;74.59;100389.95;117033;1184;21835;-76
2021/08/23 02:54:30;;;;;;;24.00;21.90;;;;;;;19.11;74.72;100380.64;117073;1186;21874;-77
2021/08/23 02:56:59;;;;;;;20.90;18.80;;;;;;;19.09;74.82;100382.93;117041;1185;22904;-78
2021/08/23 02:59:28;;;;;;;19.90;18.00;;;;;;;19.07;75.00;100384.73;117026;1184;21934;-76
2021/08/23 03:01:57;;;;;;;19.80;17.90;;;;;;;19.03;75.02;100375.95;117019;1187;22854;-76
2021/08/23 03:04:26;;;;;;;20.40;18.60;;;;;;;18.99;75.08;100370.16;117024;1185;22783;-76
2021/08/23 03:06:56;;;;;;;20.00;18.30;;;;;;;18.94;75.35;100368.02;117088;1187;23560;-76
2021/08/23 03:09:25;;;;;;;21.20;19.10;;;;;;;18.90;75.65;100372.40;117057;1184;21897;-77
2021/08/23 03:11:54;;;;;;;19.80;18.00;;;;;;;18.85;75.79;100380.21;116958;1188;21889;-76
2021/08/23 03:14:23;;;;;;;20.90;18.90;;;;;;;18.78;75.94;100381.06;117065;1187;24132;-76
2021/08/23 03:16:52;;;;;;;18.10;16.70;;;;;;;18.73;76.07;100385.43;117000;1182;21885;-77
2021/08/23 03:19:21;;;;;;;18.20;16.50;;;;;;;18.68;76.31;100378.41;117272;1184;21890;-77
2021/08/23 03:21:50;;;;;;;19.90;18.20;;;;;;;18.63;76.48;100371.72;116573;1189;21932;-77
2021/08/23 03:24:19;;;;;;;19.20;17.50;;;;;;;18.58;76.71;100364.89;116600;1189;22792;-77
2021/08/23 03:26:48;;;;;;;18.10;16.60;;;;;;;18.55;76.79;100352.91;116676;1190;21914;-78
2021/08/23 03:29:17;;;;;;;18.20;16.50;;;;;;;18.51;76.95;100354.91;116698;1189;23651;-77
2021/08/23 03:31:46;;;;;;;17.30;15.90;;;;;;;18.46;77.15;100356.26;116581;1190;22912;-77
2021/08/23 03:34:15;;;;;;;19.10;17.50;;;;;;;18.41;77.27;100358.29;116583;1186;21894;-79
2021/08/23 03:36:45;;;;;;;17.00;15.60;;;;;;;18.36;77.38;100361.62;116613;1190;21895;-77
2021/08/23 03:39:16;;;;;;;16.60;15.20;;;;;;;18.31;77.66;100361.30;116651;1187;21897;-77
2021/08/23 03:41:45;;;;;;;17.30;15.80;;;;;;;18.27;77.84;100354.91;116994;1187;21900;-77
2021/08/23 03:44:14;;;;;;;18.30;16.70;;;;;;;18.22;78.02;100352.35;117058;1187;22596;-76
2021/08/23 03:46:44;;;;;;;18.10;16.50;;;;;;;18.19;78.15;100355.16;117039;1187;21880;-77
2021/08/23 03:49:14;;;;;;;18.60;16.80;;;;;;;18.14;78.23;100356.20;117058;1187;21895;-76
2021/08/23 03:51:43;;;;;;;18.70;17.10;;;;;;;18.10;78.46;100360.09;117002;1185;22858;-78
2021/08/23 03:54:13;;;;;;;18.90;17.10;;;;;;;18.08;78.55;100364.13;116969;1188;21875;-77
2021/08/23 03:56:42;;;;;;;18.40;16.90;;;;;;;18.08;78.82;100363.31;117167;1187;21846;-78
2021/08/23 03:59:11;;;;;;;19.00;17.30;;;;;;;18.08;79.13;100363.96;117092;1186;21865;-78
2021/08/23 04:01:40;;;;;;;20.30;18.60;;;;;;;18.08;79.15;100367.52;117127;1186;21888;-77
2021/08/23 04:04:09;;;;;;;19.40;17.70;;;;;;;18.07;79.03;100375.21;117028;1185;21893;-77
2021/08/23 04:06:44;;;;;;;19.00;17.50;;;;;;;18.03;79.07;100372.61;117026;1185;21968;-76
2021/08/23 04:09:14;;;;;;;19.50;17.80;;;;;;;18.01;79.27;100371.25;117051;1187;23442;-76
2021/08/23 04:11:43;;;;;;;19.50;17.80;;;;;;;18.01;79.43;100376.88;117023;1187;21922;-78
2021/08/23 04:14:12;;;;;;;19.80;18.20;;;;;;;18.01;79.52;100390.95;117053;1185;22594;-77
2021/08/23 04:16:41;;;;;;;18.40;16.80;;;;;;;18.02;79.59;100403.48;117081;1185;22909;-77
2021/08/23 04:19:10;;;;;;;21.30;19.60;;;;;;;18.05;79.75;100409.77;117055;1185;21883;-78
2021/08/23 04:21:39;;;;;;;21.80;19.90;;;;;;;18.07;79.75;100406.59;117263;1184;21897;-78
2021/08/23 04:24:08;;;;;;;21.50;19.70;;;;;;;18.09;79.87;100398.92;117319;1184;21878;-78
2021/08/23 04:26:37;;;;;;;21.50;19.90;;;;;;;18.12;79.74;100391.21;117290;1184;21939;-77
2021/08/23 04:29:06;;;;;;;20.80;19.10;;;;;;;18.13;79.76;100384.87;117052;1185;22633;-77
2021/08/23 04:31:35;;;;;;;20.40;18.70;;;;;;;18.13;79.71;100381.63;117004;1187;23543;-78
2021/08/23 04:34:04;;;;;;;19.90;18.30;;;;;;;18.13;79.74;100386.52;117291;1184;21875;-78
2021/08/23 04:36:34;;;;;;;19.80;18.30;;;;;;;18.13;79.88;100388.94;117098;1186;21880;-78
2021/08/23 04:39:04;;;;;;;22.10;20.00;;;;;;;18.14;79.89;100391.05;117047;1186;21889;-77
2021/08/23 04:41:39;;;;;;;19.20;17.70;;;;;;;18.13;79.86;100392.56;117056;1188;21878;-77
2021/08/23 04:44:09;;;;;;;19.80;18.20;;;;;;;18.10;79.77;100385.80;117072;1185;21883;-77
2021/08/23 04:46:38;;;;;;;19.50;17.80;;;;;;;18.09;80.06;100380.67;117103;1187;22192;-78
2021/08/23 04:49:07;;;;;;;20.10;18.50;;;;;;;18.10;80.06;100377.28;117081;1187;21946;-77
2021/08/23 04:51:37;;;;;;;20.90;19.40;;;;;;;18.10;80.03;100374.23;116986;1187;22053;-77
2021/08/23 04:54:07;;;;;;;19.60;17.90;;;;;;;18.08;79.93;100372.73;117032;1185;23465;-77
2021/08/23 04:56:36;;;;;;;19.90;17.90;;;;;;;18.06;79.92;100375.34;117052;1184;22504;-76
2021/08/23 04:59:05;;;;;;;19.80;18.30;;;;;;;18.03;79.99;100375.61;117056;1187;21902;-76
2021/08/23 05:01:36;;;;;;;19.80;18.20;;;;;;;18.02;80.14;100374.35;116909;1187;21888;-76
2021/08/23 05:04:05;;;;;;;22.10;20.20;;;;;;;18.01;80.12;100379.12;116990;1187;24124;-77
2021/08/23 05:06:34;;;;;;;21.20;19.40;;;;;;;18.00;80.22;100378.13;117057;1187;21885;-77
2021/08/23 05:09:03;;;;;;;20.10;18.40;;;;;;;17.98;80.11;100382.05;117087;1180;23442;-77
2021/08/23 05:11:36;;;;;;;20.40;18.60;;;;;;;17.93;80.11;100381.75;116893;1188;21877;-77
2021/08/23 05:14:06;;;;;;;19.50;17.80;;;;;;;17.91;80.34;100380.70;117076;1187;21893;-77
2021/08/23 05:16:35;;;;;;;20.00;18.40;;;;;;;17.89;80.35;100382.73;117059;1182;23467;-77
2021/08/23 05:19:06;;;;;;;20.40;18.80;;;;;;;17.88;80.40;100379.61;117015;1187;21903;-77
2021/08/23 05:21:36;;;;;;;21.30;19.70;;;;;;;17.87;80.50;100380.65;116961;1187;21880;-78
2021/08/23 05:24:05;;;;;;;22.20;20.40;;;;;;;17.86;80.61;100382.67;117047;1185;23241;-78
2021/08/23 05:26:37;;;;;;;21.00;19.40;;;;;;;17.82;80.45;100382.11;117176;1181;21886;-77
2021/08/23 05:29:07;;;;;;;23.30;21.30;;;;;;;17.80;80.50;100381.18;117122;1188;22945;-78
2021/08/23 05:31:35;;;;;;;22.20;20.20;;;;;;;17.76;80.47;100375.14;116997;1187;23543;-77
2021/08/23 05:34:04;;;;;;;21.40;19.60;;;;;;;17.74;80.72;100371.09;117004;1185;21878;-77
2021/08/23 05:36:33;;;;;;;21.40;19.50;;;;;;;17.74;80.82;100368.48;117171;1185;21877;-78
2021/08/23 05:39:02;;;;;;;20.80;19.10;;;;;;;17.71;80.81;100371.70;117059;1185;23583;-77
2021/08/23 05:41:34;;;;;;;21.80;19.80;;;;;;;17.69;80.89;100372.13;117126;1184;22889;-75
2021/08/23 05:44:03;;;;;;;21.30;19.30;;;;;;;17.67;80.80;100375.34;117010;1187;21886;-76
2021/08/23 05:46:33;;;;;;;20.70;19.00;;;;;;;17.64;81.02;100376.54;116972;1188;21892;-76
2021/08/23 05:49:02;;;;;;;19.10;17.30;;;;;;;17.64;81.24;100374.89;116966;1187;23463;-77
2021/08/23 05:51:31;;;;;;;20.10;18.40;;;;;;;17.64;81.10;100373.38;117074;1187;21920;-77
2021/08/23 05:54:00;;;;;;;19.60;18.10;;;;;;;17.61;81.16;100374.18;117023;1187;24135;-77
2021/08/23 05:56:28;;;;;;;18.70;17.20;;;;;;;17.57;80.99;100375.89;117040;1187;21890;-76
2021/08/23 05:58:58;;;;;;;19.20;17.50;;;;;;;17.55;81.11;100381.36;116966;1190;22483;-77
2021/08/23 06:01:27;;;;;;;17.90;16.50;;;;;;;17.54;81.24;100381.33;117076;1185;22911;-76
2021/08/23 06:03:56;;;;;;;20.00;18.30;;;;;;;17.53;81.21;100382.06;117374;1182;21875;-80
2021/08/23 06:06:30;;;;;;;19.40;17.70;;;;;;;17.51;81.24;100384.12;117034;1184;21929;-78
2021/08/23 06:08:58;;;;;;;18.20;16.80;;;;;;;17.48;81.15;100384.92;117089;1185;21886;-78
2021/08/23 06:11:27;;;;;;;17.70;16.30;;;;;;;17.44;81.27;100383.46;117321;1185;21900;-77
2021/08/23 06:13:58;;;;;;;17.30;15.90;;;;;;;17.42;81.37;100380.77;117096;1185;23543;-78
2021/08/23 06:16:27;;;;;;;19.70;17.90;;;;;;;17.40;81.31;100381.26;117290;1184;21826;-77
2021/08/23 06:18:55;;;;;;;19.40;17.70;;;;;;;17.39;81.47;100381.55;117318;1185;23437;-77
2021/08/23 06:21:25;;;;;;;19.60;17.80;;;;;;;17.39;81.51;100381.95;117093;1185;21872;-78
2021/08/23 06:23:54;;;;;;;19.30;17.70;;;;;;;17.39;81.61;100382.86;117071;1183;22902;-77
2021/08/23 06:26:23;;;;;;;20.50;18.80;;;;;;;17.39;81.62;100382.38;117067;1188;21878;-77
2021/08/23 06:28:52;;;;;;;20.90;19.10;;;;;;;17.37;81.59;100385.18;117047;1187;21888;-78
2021/08/23 06:31:21;;;;;;;20.90;19.20;;;;;;;17.36;81.88;100388.26;117149;1185;23438;-77
2021/08/23 06:33:50;;;;;;;21.50;19.70;;;;;;;17.39;82.05;100392.27;117352;1185;23564;-82
2021/08/23 06:36:19;;;;;;;22.70;20.90;;;;;;;17.40;81.88;100397.48;117289;1186;21887;-77
2021/08/23 06:38:49;;;;;;;23.60;21.50;;;;;;;17.43;82.12;100401.09;117242;1187;21877;-78
2021/08/23 06:41:20;;;;;;;21.50;19.80;;;;;;;17.46;81.99;100395.86;117076;1184;21877;-78
2021/08/23 06:43:49;;;;;;;;;;;;;;;17.44;81.89;100398.99;117140;1181;21868;-78
2021/08/23 06:46:18;;;;;;;19.90;18.40;;;;;;;17.34;82.04;100397.64;117087;1187;22857;-78
2021/08/23 06:48:49;;;;;;;21.70;19.80;;;;;;;17.33;82.27;100400.10;117150;1186;21867;-78
2021/08/23 06:51:21;;;;;;;21.30;19.60;;;;;;;17.33;82.10;100406.04;117323;1184;22921;-78
2021/08/23 06:53:51;;;;;;;20.50;18.80;;;;;;;17.32;82.07;100409.10;117068;1187;22907;-79
2021/08/23 06:56:21;;;;;;;20.90;19.30;;;;;;;17.32;82.18;100412.14;117144;1187;24368;-79
2021/08/23 06:58:50;;;;;;;20.90;19.20;;;;;;;17.31;82.25;100413.50;117302;1188;23442;-77
2021/08/23 07:01:19;;;;;;;21.50;19.80;;;;;;;17.33;82.29;100414.02;117133;1185;21874;-78
2021/08/23 07:03:48;;;;;;;21.20;19.60;;;;;;;17.33;82.25;100412.09;117113;1187;21874;-78
2021/08/23 07:06:20;;;;;;;22.70;20.90;;;;;;;17.35;82.47;100410.65;117271;1184;24147;-82
2021/08/23 07:08:49;;;;;;;22.70;21.00;;;;;;;17.37;82.66;100409.45;117384;1184;21870;-78
2021/08/23 07:11:19;;;;;;;22.60;20.80;;;;;;;17.37;82.44;100409.71;117046;1187;21928;-77
2021/08/23 07:13:48;;;;;;;21.80;20.20;;;;;;;17.36;82.46;100406.58;117075;1185;22703;-77
2021/08/23 07:16:17;;;;;;;22.70;20.90;;;;;;;17.38;82.57;100401.31;117126;1186;22345;-77
2021/08/23 07:18:52;;;;;;;21.30;19.70;;;;;;;17.39;82.52;100404.97;117016;1187;21852;-79
2021/08/23 07:21:24;;;;;;;19.00;17.30;;;;;;;17.39;82.66;100402.27;117058;1187;21897;-77
2021/08/23 07:23:53;;;;;;;19.80;17.80;;;;;;;17.40;82.75;100401.19;117123;1186;21874;-78
2021/08/23 07:26:22;;;;;;;16.90;15.60;;;;;;;17.43;82.81;100399.65;117125;1185;21888;-77
2021/08/23 07:28:51;;;;;;;17.00;15.60;;;;;;;17.46;82.97;100400.62;117273;1185;21877;-77
2021/08/23 07:31:21;;;;;;;16.50;15.30;;;;;;;17.49;82.95;100401.52;117122;1185;21868;-77
2021/08/23 07:33:51;;;;;;;15.80;14.70;;;;;;;17.50;82.92;100403.61;117124;1187;23570;-77
2021/08/23 07:36:20;;;;;;;14.80;13.60;;;;;;;17.52;83.02;100404.63;117292;1184;23438;-78
2021/08/23 07:38:49;;;;;;;16.30;15.00;;;;;;;17.55;83.00;100409.38;117132;1188;21879;-80
2021/08/23 07:41:18;;;;;;;15.10;14.00;;;;;;;17.54;82.97;100410.13;117113;1185;21854;-79
2021/08/23 07:43:47;;;;;;;17.90;16.30;;;;;;;17.54;82.87;100408.19;117168;1187;21898;-79
2021/08/23 07:46:16;;;;;;;17.00;15.60;;;;;;;17.54;82.91;100414.43;117287;1185;22840;-80
2021/08/23 07:48:45;;;;;;;16.80;15.40;;;;;;;17.54;82.96;100415.15;117117;1185;22408;-79
2021/08/23 07:51:14;;;;;;;16.50;15.10;;;;;;;17.54;82.92;100422.87;117095;1188;21869;-80
2021/08/23 07:53:43;;;;;;;17.00;15.60;;;;;;;17.55;82.93;100428.61;117123;1187;21882;-79
2021/08/23 07:56:12;;;;;;;15.60;14.00;;;;;;;17.57;82.95;100430.24;117153;1185;21878;-78
2021/08/23 07:58:41;;;;;;;16.50;15.30;;;;;;;17.57;82.86;100432.50;117315;1185;21886;-79
2021/08/23 08:01:10;;;;;;;16.90;15.40;;;;;;;17.59;82.96;100430.98;117222;1185;23433;-79
2021/08/23 08:03:39;;;;;;;17.60;16.20;;;;;;;17.65;83.19;100431.34;117232;1185;21887;-79
2021/08/23 08:06:08;;;;;;;18.20;16.70;;;;;;;17.68;83.03;100430.85;117369;1184;23435;-79
2021/08/23 08:08:37;;;;;;;18.00;16.70;;;;;;;17.71;83.02;100431.14;116821;1187;21890;-79
2021/08/23 08:11:06;;;;;;;18.30;16.90;;;;;;;17.74;82.98;100427.80;116833;1184;21904;-79
2021/08/23 08:13:35;;;;;;;19.70;18.20;;;;;;;17.74;82.89;100427.07;116872;1188;21904;-79
2021/08/23 08:16:04;;;;;;;18.70;17.20;;;;;;;17.76;83.08;100430.16;116816;1190;23600;-78
2021/08/23 08:18:34;;;;;;;20.60;19.00;;;;;;;17.80;83.05;100431.95;116981;1187;23490;-79
2021/08/23 08:21:03;;;;;;;21.20;19.40;;;;;;;17.81;82.98;100432.23;116883;1188;23455;-79
2021/08/23 08:23:32;;;;;;;24.50;22.30;;;;;;;17.82;82.78;100428.29;116885;1189;21891;-79
2021/08/23 08:26:01;;;;;;;23.80;22.00;;;;;;;17.80;82.77;100430.59;117033;1185;21886;-80
2021/08/23 08:28:32;;;;;;;24.50;22.60;;;;;;;17.81;82.86;100424.94;117331;1186;24153;-80
2021/08/23 08:31:01;;;;;;;24.60;22.40;;;;;;;17.82;82.75;100424.29;117342;1184;21896;-79
2021/08/23 08:33:30;;;;;;;23.40;21.60;;;;;;;17.81;82.71;100423.19;117334;1185;21887;-80
2021/08/23 08:35:59;;;;;;;25.10;23.10;;;;;;;17.82;82.79;100422.56;117133;1185;22905;-79
2021/08/23 08:38:28;;;;;;;22.40;20.80;;;;;;;17.84;83.02;100427.90;117155;1188;23460;-79
2021/08/23 08:41:00;;;;;;;22.40;20.60;;;;;;;17.85;82.96;100429.38;117115;1186;22856;-80
2021/08/23 08:43:29;;;;;;;22.80;21.00;;;;;;;17.85;82.84;100431.55;117392;1184;21891;-78
2021/08/23 08:46:00;;;;;;;23.70;21.30;;;;;;;17.82;82.89;100432.27;117122;1188;21912;-79
2021/08/23 08:48:30;;;;;;;22.40;20.70;;;;;;;17.80;82.90;100435.40;117133;1185;22917;-79
2021/08/23 08:51:00;;;;;;;23.20;21.40;;;;;;;17.80;83.02;100437.55;117185;1185;23443;-78
2021/08/23 08:53:29;;;;;;;22.30;20.70;;;;;;;17.80;83.05;100437.80;116997;1187;21900;-80
2021/08/23 08:55:58;;;;;;;21.70;20.00;;;;;;;17.82;83.19;100436.95;116948;1188;21901;-80
2021/08/23 08:58:27;;;;;;;21.80;19.80;;;;;;;17.84;83.24;100435.75;116856;1188;23445;-79
2021/08/23 09:00:56;;;;;;;19.40;17.90;;;;;;;17.88;83.19;100438.45;116905;1187;22910;-80
2021/08/23 09:03:28;;;;;;;19.40;17.90;;;;;;;17.90;83.24;100436.22;117016;1187;21890;-79
2021/08/23 09:06:03;;;;;;;;;;;;;;;17.93;83.24;100436.20;116932;1188;21896;-79
2021/08/23 09:08:40;;;;;;;14.50;13.20;;;;;;;17.85;83.15;100440.75;116832;1190;21960;-79
2021/08/23 09:11:15;;;;;;;11.70;10.80;;;;;;;17.84;83.34;100442.61;116849;1190;23523;-80
2021/08/23 09:14:09;;;;;;;12.60;11.40;;;;;;;17.85;83.17;100450.63;116867;1189;21894;-81
2021/08/23 09:16:43;;;;;;;11.00;10.10;;;;;;;17.85;83.12;100450.80;116835;1192;22000;-80
2021/08/23 09:19:27;;;;;;;9.90;9.10;;;;;;;17.86;82.94;100449.98;116693;1187;21895;-79
2021/08/23 09:22:06;;;;;;;10.20;9.30;;;;;;;17.87;83.16;100452.27;116756;1187;22024;-79
2021/08/23 09:24:38;;;;;;;10.30;9.30;;;;;;;17.89;83.11;100453.45;116724;1189;23006;-80
2021/08/23 09:27:13;;;;;;;8.80;8.10;;;;;;;17.94;83.22;100456.98;116452;1193;22124;-79
2021/08/23 09:30:11;;;;;;;9.80;9.10;;;;;;;17.97;83.08;100457.06;116635;1190;21947;-80
2021/08/23 09:32:50;;;;;;;10.90;10.10;;;;;;;17.95;82.77;100454.39;116408;1192;23456;-81
2021/08/23 09:35:36;;;;;;;9.70;8.80;;;;;;;17.91;82.56;100454.44;116441;1192;22914;-79
2021/08/23 09:38:11;;;;;;;9.60;8.90;;;;;;;17.88;82.54;100455.05;116437;1195;22923;-80
2021/08/23 09:40:40;;;;;;;9.70;9.00;;;;;;;17.84;82.41;100454.37;116443;1194;21912;-80
2021/08/23 09:43:13;;;;;;;11.70;10.70;;;;;;;17.77;82.35;100451.43;116451;1193;23452;-78
2021/08/23 09:45:50;;;;;;;11.50;10.70;;;;;;;17.72;82.35;100455.17;116555;1193;21885;-78
2021/08/23 09:48:19;;;;;;;17.40;16.20;;;;;;;17.67;82.32;100453.14;116689;1190;23616;-78
2021/08/23 09:50:50;;;;;;;26.90;24.70;;;;;;;17.61;82.39;100448.92;116800;1189;23559;-78
2021/08/23 09:53:20;;;;;;;17.30;15.90;;;;;;;17.59;82.83;100449.93;116707;1192;21845;-77
2021/08/23 09:56:02;;;;;;;14.00;13.00;;;;;;;17.60;82.87;100451.94;116735;1192;21915;-77
2021/08/23 09:58:34;;;;;;;14.20;13.10;;;;;;;17.60;82.87;100452.75;116605;1190;21900;-78
2021/08/23 10:01:04;;;;;;;12.00;11.10;;;;;;;17.59;82.72;100451.94;116792;1190;21940;-77
2021/08/23 10:03:32;;;;;;;13.20;12.20;;;;;;;17.57;82.70;100454.04;116840;1189;21886;-78
2021/08/23 10:06:15;;;;;;;11.80;10.80;;;;;;;17.58;82.90;100459.34;116759;1190;21872;-78
2021/08/23 10:08:45;;;;;;;12.60;11.60;;;;;;;17.58;82.74;100458.39;116753;1185;21893;-78
2021/08/23 10:11:15;;;;;;;13.30;12.30;;;;;;;17.56;82.50;100457.66;116710;1190;23459;-78
2021/08/23 10:13:44;;;;;;;14.10;13.00;;;;;;;17.50;82.29;100455.63;116802;1190;22838;-77
2021/08/23 10:16:14;;;;;;;12.00;11.10;;;;;;;17.42;82.32;100450.45;116815;1189;22024;-77
2021/08/23 10:18:43;;;;;;;13.10;12.00;;;;;;;17.39;82.57;100454.31;116789;1189;21888;-79
2021/08/23 10:21:14;;;;;;;13.60;12.60;;;;;;;17.37;82.48;100458.75;116798;1188;23604;-77
2021/08/23 10:23:43;;;;;;;14.50;13.10;;;;;;;17.34;82.64;100468.08;116738;1190;23630;-78
2021/08/23 10:26:13;;;;;;;16.10;14.70;;;;;;;17.34;82.84;100472.19;116982;1193;21988;-77
2021/08/23 10:28:47;;;;;;;15.30;14.10;;;;;;;17.36;82.99;100478.64;116864;1189;22619;-79
2021/08/23 10:31:20;;;;;;;14.50;13.40;;;;;;;17.36;82.79;100479.16;116856;1189;21874;-80
2021/08/23 10:33:50;;;;;;;14.70;13.50;;;;;;;17.35;82.70;100479.83;116769;1190;23624;-80
2021/08/23 10:36:20;;;;;;;14.20;13.10;;;;;;;17.35;82.69;100481.11;117160;1189;23458;-79
2021/08/23 10:39:01;;;;;;;12.40;11.20;;;;;;;17.37;82.86;100481.23;116476;1192;21904;-79
2021/08/23 10:41:31;;;;;;;12.70;11.70;;;;;;;17.37;82.69;100479.95;116560;1194;21898;-79
2021/08/23 10:44:04;;;;;;;12.30;11.40;;;;;;;17.36;82.60;100480.93;116502;1195;21912;-80
2021/08/23 10:46:37;;;;;;;13.90;12.50;;;;;;;17.37;82.54;100480.72;116454;1195;22901;-80
2021/08/23 10:49:10;;;;;;;13.20;12.30;;;;;;;17.37;82.36;100489.77;116590;1193;21902;-80
2021/08/23 10:51:42;;;;;;;13.10;12.10;;;;;;;17.35;82.13;100491.16;116788;1186;23185;-79
2021/08/23 10:54:27;;;;;;;12.00;11.10;;;;;;;17.30;81.91;100487.84;116742;1191;21922;-80
2021/08/23 10:57:05;;;;;;;12.10;11.10;;;;;;;17.25;81.92;100483.99;116953;1188;21878;-80
2021/08/23 10:59:44;;;;;;;11.10;10.20;;;;;;;17.17;81.95;100487.13;117054;1189;24995;-80
2021/08/23 11:02:36;;;;;;;10.00;9.20;;;;;;;17.11;82.17;100491.21;117103;1186;23652;-79
2021/08/23 11:05:16;;;;;;;11.10;10.20;;;;;;;17.07;82.30;100497.83;117031;1185;21880;-79
2021/08/23 11:08:03;;;;;;;9.90;9.20;;;;;;;17.02;82.20;100500.25;117083;1185;21844;-80
2021/08/23 11:10:34;;;;;;;9.70;9.00;;;;;;;16.97;82.04;100496.14;117177;1186;22186;-80
2021/08/23 11:13:15;;;;;;;;;;;;;;;16.92;82.07;100490.48;117104;1188;24269;-79
2021/08/23 11:15:46;;;;;;;10.70;9.80;;;;;;;16.79;82.03;100483.36;117113;1188;21890;-80
2021/08/23 11:18:18;;;;;;;11.00;10.20;;;;;;;16.74;82.35;100485.66;117108;1185;21876;-79
2021/08/23 11:20:52;;;;;;;11.40;10.30;;;;;;;16.73;82.30;100488.40;116863;1188;23541;-79